createdAt,value
2023-04-26T00:00:16.591Z,12.32
2023-04-26T00:02:44.332Z,12.31
2023-04-26T00:05:12.278Z,12.20
2023-04-26T00:07:40.207Z,12.21
2023-04-26T00:10:08.651Z,12.18
2023-04-26T00:12:37.364Z,12.16
2023-04-26T00:15:05.535Z,12.11
2023-04-26T00:17:33.373Z,12.09
2023-04-26T00:20:01.523Z,11.96
2023-04-26T00:22:29.001Z,11.95
2023-04-26T00:24:56.558Z,11.90
2023-04-26T00:27:24.011Z,11.81
2023-04-26T00:29:51.516Z,11.73
2023-04-26T00:32:19.003Z,11.75
2023-04-26T00:34:47.583Z,11.70
2023-04-26T00:37:15.411Z,11.66
2023-04-26T00:39:43.021Z,11.64
2023-04-26T00:42:10.818Z,11.60
2023-04-26T00:44:40.168Z,11.50
2023-04-26T00:47:07.749Z,11.47
2023-04-26T00:49:35.741Z,11.50
2023-04-26T00:52:03.648Z,11.45
2023-04-26T00:54:31.275Z,11.49
2023-04-26T00:56:59.040Z,11.50
2023-04-26T00:59:27.679Z,11.56
2023-04-26T01:01:56.184Z,11.36
2023-04-26T01:04:27.533Z,11.23
2023-04-26T01:06:56.887Z,11.27
2023-04-26T01:09:24.469Z,11.16
2023-04-26T01:11:52.928Z,11.11
2023-04-26T01:14:22.052Z,11.14
2023-04-26T01:16:50.210Z,11.12
2023-04-26T01:19:18.337Z,11.01
2023-04-26T01:21:46.241Z,10.96
2023-04-26T01:24:14.895Z,10.90
2023-04-26T01:26:46.640Z,10.89
2023-04-26T01:29:18.693Z,10.75
2023-04-26T01:31:47.235Z,10.72
2023-04-26T01:34:15.055Z,10.76
2023-04-26T01:36:42.881Z,10.86
2023-04-26T01:39:10.513Z,10.94
2023-04-26T01:41:38.398Z,10.94
2023-04-26T01:44:05.917Z,10.86
2023-04-26T01:46:33.753Z,10.84
2023-04-26T01:49:01.306Z,10.79
2023-04-26T01:51:30.752Z,10.76
2023-04-26T01:53:58.372Z,10.77
2023-04-26T01:56:26.109Z,10.79
2023-04-26T01:58:56.488Z,10.73
2023-04-26T02:01:24.358Z,10.69
2023-04-26T02:03:52.592Z,10.57
2023-04-26T02:06:21.558Z,10.49
2023-04-26T02:08:49.735Z,10.46
2023-04-26T02:11:17.373Z,10.46
2023-04-26T02:13:45.347Z,10.50
2023-04-26T02:16:12.826Z,10.45
2023-04-26T02:18:41.679Z,10.43
2023-04-26T02:21:11.208Z,10.41
2023-04-26T02:23:38.753Z,10.39
2023-04-26T02:26:06.470Z,10.40
2023-04-26T02:28:34.158Z,10.49
2023-04-26T02:31:02.880Z,10.49
2023-04-26T02:33:31.372Z,10.52
2023-04-26T02:35:59.230Z,10.51
2023-04-26T02:38:27.410Z,10.52
2023-04-26T02:41:02.063Z,10.48
2023-04-26T02:43:29.929Z,10.53
2023-04-26T02:46:01.562Z,10.56
2023-04-26T02:48:31.121Z,10.55
2023-04-26T02:50:58.708Z,10.50
2023-04-26T02:53:26.270Z,10.46
2023-04-26T02:55:54.544Z,10.48
2023-04-26T02:58:22.171Z,10.49
2023-04-26T03:00:49.934Z,10.45
2023-04-26T03:03:17.964Z,10.37
2023-04-26T03:05:46.841Z,10.39
2023-04-26T03:08:14.662Z,10.44
2023-04-26T03:10:45.785Z,10.52
2023-04-26T03:13:13.497Z,10.58
2023-04-26T03:15:46.053Z,10.57
2023-04-26T03:18:14.167Z,10.54
2023-04-26T03:20:42.294Z,10.52
2023-04-26T03:23:09.853Z,10.38
2023-04-26T03:25:37.895Z,10.50
2023-04-26T03:28:05.641Z,10.38
2023-04-26T03:30:33.125Z,10.49
2023-04-26T03:33:00.822Z,10.45
2023-04-26T03:35:28.752Z,10.39
2023-04-26T03:37:58.509Z,10.47
2023-04-26T03:40:27.497Z,10.49
2023-04-26T03:42:55.099Z,10.48
2023-04-26T03:45:22.562Z,10.50
2023-04-26T03:47:50.048Z,10.58
2023-04-26T03:50:17.824Z,10.56
2023-04-26T03:52:46.786Z,10.69
2023-04-26T03:55:14.520Z,10.62
2023-04-26T03:57:42.408Z,10.63
2023-04-26T04:00:14.522Z,10.75
2023-04-26T04:02:45.209Z,10.82
2023-04-26T04:05:21.583Z,10.85
2023-04-26T04:07:49.184Z,10.94
2023-04-26T04:10:17.269Z,10.96
2023-04-26T04:12:46.149Z,11.08
2023-04-26T04:15:13.678Z,11.14
2023-04-26T04:17:46.010Z,11.15
2023-04-26T04:20:14.221Z,11.18
2023-04-26T04:22:42.121Z,11.30
2023-04-26T04:25:10.614Z,11.23
2023-04-26T04:27:42.525Z,11.31
2023-04-26T04:30:10.962Z,11.38
2023-04-26T04:32:40.289Z,11.47
2023-04-26T04:35:08.650Z,11.54
2023-04-26T04:37:36.399Z,11.68
2023-04-26T04:40:04.829Z,11.73
2023-04-26T04:42:36.136Z,11.82
2023-04-26T04:45:07.599Z,11.84
2023-04-26T04:47:37.983Z,11.89
2023-04-26T04:50:07.259Z,11.66
2023-04-26T04:52:35.138Z,11.61
2023-04-26T04:55:03.921Z,11.53
2023-04-26T04:57:32.598Z,11.35
2023-04-26T05:00:07.352Z,11.35
2023-04-26T05:02:37.115Z,11.38
2023-04-26T05:05:06.238Z,11.39
2023-04-26T05:07:34.519Z,11.49
2023-04-26T05:10:04.069Z,11.64
2023-04-26T05:12:32.088Z,11.81
2023-04-26T05:14:59.720Z,11.96
2023-04-26T05:17:27.248Z,12.10
2023-04-26T05:19:55.600Z,12.24
2023-04-26T05:22:23.185Z,12.36
2023-04-26T05:24:54.285Z,12.56
2023-04-26T05:27:22.121Z,12.69
2023-04-26T05:30:06.547Z,12.80
2023-04-26T05:32:45.888Z,12.84
2023-04-26T05:35:26.452Z,12.86
2023-04-26T05:37:54.337Z,12.91
2023-04-26T05:40:22.749Z,12.97
2023-04-26T05:42:51.333Z,13.02
2023-04-26T05:45:18.955Z,13.08
2023-04-26T05:47:47.737Z,13.14
2023-04-26T05:50:15.544Z,13.24
2023-04-26T05:52:43.212Z,13.33
2023-04-26T05:55:10.923Z,13.41
2023-04-26T05:57:38.741Z,13.49
2023-04-26T06:00:09.949Z,13.58
2023-04-26T06:02:46.279Z,13.63
2023-04-26T06:05:18.304Z,13.71
2023-04-26T06:07:46.561Z,13.80
2023-04-26T06:10:14.211Z,13.86
2023-04-26T06:12:42.999Z,13.89
2023-04-26T06:15:11.430Z,13.94
2023-04-26T06:17:43.138Z,13.94
2023-04-26T06:20:11.011Z,13.99
2023-04-26T06:22:38.780Z,14.03
2023-04-26T06:25:07.511Z,14.03
2023-04-26T06:27:39.137Z,14.15
2023-04-26T06:30:07.895Z,14.18
2023-04-26T06:32:40.959Z,14.27
2023-04-26T06:35:09.497Z,14.30
2023-04-26T06:37:39.003Z,14.36
2023-04-26T06:40:08.615Z,14.45
2023-04-26T06:42:36.902Z,14.57
2023-04-26T06:45:23.161Z,14.69
2023-04-26T06:47:54.226Z,14.75
2023-04-26T06:50:24.815Z,14.84
2023-04-26T06:52:52.522Z,15.02
2023-04-26T06:55:21.303Z,15.09
2023-04-26T06:57:50.754Z,15.08
2023-04-26T07:00:18.492Z,15.12
2023-04-26T07:02:46.284Z,15.21
2023-04-26T07:05:15.460Z,15.42
2023-04-26T07:07:43.317Z,15.57
2023-04-26T07:10:11.154Z,15.60
2023-04-26T07:12:39.080Z,15.73
2023-04-26T07:15:07.364Z,15.81
2023-04-26T07:17:35.850Z,15.95
2023-04-26T07:20:04.190Z,16.01
2023-04-26T07:22:32.122Z,16.12
2023-04-26T07:24:59.548Z,16.02
2023-04-26T07:27:27.111Z,15.86
2023-04-26T07:29:56.251Z,15.85
2023-04-26T07:32:23.861Z,15.98
2023-04-26T07:34:51.406Z,16.22
2023-04-26T07:37:18.894Z,16.19
2023-04-26T07:39:46.742Z,16.27
2023-04-26T07:42:15.174Z,16.20
2023-04-26T07:44:42.840Z,16.36
2023-04-26T07:47:14.051Z,16.57
2023-04-26T07:49:41.632Z,16.58
2023-04-26T07:52:09.718Z,16.57
2023-04-26T07:54:40.308Z,16.76
2023-04-26T07:57:07.694Z,16.84
2023-04-26T07:59:35.420Z,16.91
2023-04-26T08:02:02.940Z,16.82
2023-04-26T08:04:34.322Z,16.86
2023-04-26T08:07:02.289Z,16.93
2023-04-26T08:09:30.890Z,17.07
2023-04-26T08:11:58.663Z,17.04
2023-04-26T08:14:27.483Z,16.85
2023-04-26T08:16:55.229Z,16.94
2023-04-26T08:19:22.852Z,16.79
2023-04-26T08:21:50.326Z,16.87
2023-04-26T08:24:17.948Z,16.88
2023-04-26T08:26:45.440Z,17.00
2023-04-26T08:29:12.991Z,17.14
2023-04-26T08:31:40.753Z,17.24
2023-04-26T08:34:13.529Z,17.13
2023-04-26T08:36:42.262Z,17.30
2023-04-26T08:39:12.341Z,17.46
2023-04-26T08:41:45.657Z,17.61
2023-04-26T08:44:13.202Z,17.68
2023-04-26T08:46:56.099Z,17.62
2023-04-26T08:49:53.162Z,17.80
2023-04-26T08:52:24.679Z,17.98
2023-04-26T08:54:53.716Z,18.18
2023-04-26T08:57:22.639Z,18.12
2023-04-26T08:59:52.866Z,18.08
2023-04-26T09:02:22.517Z,18.25
2023-04-26T09:04:50.837Z,18.33
2023-04-26T09:07:24.906Z,18.40
2023-04-26T09:09:54.983Z,18.39
2023-04-26T09:12:22.629Z,18.53
2023-04-26T09:14:50.429Z,18.67
2023-04-26T09:17:32.902Z,18.76
2023-04-26T09:20:01.408Z,18.79
2023-04-26T09:22:32.467Z,18.80
2023-04-26T09:25:01.171Z,18.96
2023-04-26T09:27:34.195Z,19.02
2023-04-26T09:30:11.196Z,19.15
2023-04-26T09:32:51.956Z,19.21
2023-04-26T09:35:22.429Z,19.26
2023-04-26T09:38:11.726Z,19.49
2023-04-26T09:40:45.464Z,19.48
2023-04-26T09:43:21.150Z,19.38
2023-04-26T09:45:54.176Z,19.43
2023-04-26T09:48:33.363Z,19.37
2023-04-26T09:51:03.912Z,19.53
2023-04-26T09:53:47.739Z,19.73
2023-04-26T09:56:22.069Z,19.70
2023-04-26T09:59:00.641Z,19.61
2023-04-26T10:01:30.580Z,19.67
2023-04-26T10:04:01.893Z,19.91
2023-04-26T10:06:30.415Z,20.05
2023-04-26T10:08:58.114Z,20.13
2023-04-26T10:11:27.177Z,20.11
2023-04-26T10:13:55.252Z,20.16
2023-04-26T10:16:23.878Z,20.25
2023-04-26T10:18:51.724Z,20.13
2023-04-26T10:21:39.602Z,20.25
2023-04-26T10:24:07.757Z,20.26
2023-04-26T10:26:55.699Z,20.25
2023-04-26T10:29:47.463Z,20.32
2023-04-26T10:32:18.248Z,20.05
2023-04-26T10:35:09.817Z,19.95
2023-04-26T10:37:37.786Z,20.02
2023-04-26T10:40:25.250Z,20.26
2023-04-26T10:43:15.846Z,20.39
2023-04-26T10:45:45.138Z,20.51
2023-04-26T10:48:19.957Z,20.51
2023-04-26T10:51:01.347Z,20.50
2023-04-26T10:53:30.264Z,20.63
2023-04-26T10:55:58.239Z,20.41
2023-04-26T10:58:30.538Z,19.99
2023-04-26T11:01:18.393Z,20.37
2023-04-26T11:03:58.982Z,20.54
2023-04-26T11:06:47.396Z,20.55
2023-04-26T11:09:48.282Z,20.56
2023-04-26T11:12:16.732Z,20.11
2023-04-26T11:14:46.410Z,20.00
2023-04-26T11:17:14.190Z,20.00
2023-04-26T11:19:42.066Z,19.97
2023-04-26T11:22:09.765Z,20.09
2023-04-26T11:24:38.912Z,20.26
2023-04-26T11:27:11.011Z,20.64
2023-04-26T11:29:39.431Z,20.42
2023-04-26T11:32:07.245Z,20.31
2023-04-26T11:34:37.715Z,20.17
2023-04-26T11:37:06.855Z,20.32
2023-04-26T11:39:35.861Z,20.07
2023-04-26T11:42:07.412Z,20.01
2023-04-26T11:44:36.100Z,20.37
2023-04-26T11:47:04.902Z,20.15
2023-04-26T11:49:39.342Z,20.19
2023-04-26T11:52:08.984Z,20.34
2023-04-26T11:54:37.940Z,20.31
2023-04-26T11:57:17.612Z,20.09
2023-04-26T11:59:46.016Z,20.21
2023-04-26T12:02:14.405Z,20.18
2023-04-26T12:04:42.402Z,20.02
2023-04-26T12:07:10.447Z,20.13
2023-04-26T12:09:42.719Z,19.99
2023-04-26T12:12:11.614Z,20.17
2023-04-26T12:14:40.660Z,20.39
2023-04-26T12:17:08.642Z,20.49
2023-04-26T12:19:40.678Z,20.60
2023-04-26T12:22:09.133Z,20.71
2023-04-26T12:24:39.801Z,20.93
2023-04-26T12:27:07.941Z,20.84
2023-04-26T12:29:35.728Z,20.75
2023-04-26T12:32:04.379Z,20.67
2023-04-26T12:34:32.171Z,20.58
2023-04-26T12:36:59.716Z,20.65
2023-04-26T12:39:27.259Z,20.50
2023-04-26T12:41:55.269Z,20.32
2023-04-26T12:44:22.949Z,20.14
2023-04-26T12:46:51.376Z,20.19
2023-04-26T12:49:18.873Z,20.35
2023-04-26T12:51:46.354Z,20.33
2023-04-26T12:54:13.856Z,20.15
2023-04-26T12:56:44.510Z,20.14
2023-04-26T12:59:12.191Z,20.21
2023-04-26T13:01:39.842Z,20.30
2023-04-26T13:04:07.711Z,20.33
2023-04-26T13:06:36.016Z,20.29
2023-04-26T13:09:03.869Z,20.46
2023-04-26T13:11:32.034Z,20.69
2023-04-26T13:13:59.756Z,21.03
2023-04-26T13:16:27.334Z,20.89
2023-04-26T13:18:56.137Z,20.60
2023-04-26T13:21:23.812Z,20.60
2023-04-26T13:23:51.470Z,20.52
2023-04-26T13:26:18.942Z,20.27
2023-04-26T13:28:47.592Z,20.23
2023-04-26T13:31:17.160Z,20.36
2023-04-26T13:33:45.778Z,20.16
2023-04-26T13:36:13.342Z,20.35
2023-04-26T13:38:40.857Z,20.30
2023-04-26T13:41:08.760Z,20.10
2023-04-26T13:43:36.291Z,20.11
2023-04-26T13:46:03.983Z,20.03
2023-04-26T13:48:32.044Z,20.16
2023-04-26T13:50:59.653Z,20.57
2023-04-26T13:53:27.196Z,20.81
2023-04-26T13:55:54.667Z,20.80
2023-04-26T13:58:22.873Z,20.93
2023-04-26T14:00:50.525Z,21.01
2023-04-26T14:03:18.912Z,20.99
2023-04-26T14:05:46.689Z,20.99
2023-04-26T14:08:14.611Z,20.78
2023-04-26T14:10:42.425Z,20.59
2023-04-26T14:13:10.239Z,20.70
2023-04-26T14:15:37.714Z,20.33
2023-04-26T14:18:05.363Z,20.08
2023-04-26T14:20:32.883Z,20.23
2023-04-26T14:23:00.504Z,20.38
2023-04-26T14:25:28.084Z,20.52
2023-04-26T14:27:55.598Z,20.74
2023-04-26T14:30:24.552Z,20.84
2023-04-26T14:32:52.014Z,20.89
2023-04-26T14:35:19.467Z,21.21
2023-04-26T14:37:47.097Z,21.12
2023-04-26T14:40:14.685Z,21.32
2023-04-26T14:42:45.956Z,21.16
2023-04-26T14:45:14.312Z,21.29
2023-04-26T14:47:42.044Z,21.14
2023-04-26T14:50:10.488Z,21.22
2023-04-26T14:52:38.008Z,20.80
2023-04-26T14:55:06.054Z,21.01
2023-04-26T14:57:34.580Z,21.02
2023-04-26T15:00:09.038Z,20.91
2023-04-26T15:02:36.954Z,20.94
2023-04-26T15:05:06.177Z,21.01
2023-04-26T15:07:34.222Z,20.94
2023-04-26T15:10:02.207Z,21.10
2023-04-26T15:12:30.029Z,21.30
2023-04-26T15:14:57.557Z,21.38
2023-04-26T15:17:25.123Z,21.69
2023-04-26T15:19:52.731Z,21.48
2023-04-26T15:22:20.638Z,21.73
2023-04-26T15:24:49.724Z,22.11
2023-04-26T15:27:17.715Z,22.64
2023-04-26T15:29:45.362Z,22.71
2023-04-26T15:32:13.168Z,22.87
2023-04-26T15:34:43.455Z,22.65
2023-04-26T15:37:11.631Z,22.12
2023-04-26T15:39:39.172Z,21.88
2023-04-26T15:42:06.811Z,21.84
2023-04-26T15:44:34.652Z,21.81
2023-04-26T15:49:30.142Z,20.80
2023-04-26T15:51:57.681Z,20.17
2023-04-26T15:54:26.565Z,20.05
2023-04-26T15:56:55.319Z,19.67
2023-04-26T15:59:22.838Z,19.50
2023-04-26T16:01:50.582Z,19.35
2023-04-26T16:04:18.275Z,19.28
2023-04-26T16:06:46.109Z,19.04
2023-04-26T16:09:25.371Z,18.88
2023-04-26T16:11:53.568Z,18.81
2023-04-26T16:14:21.046Z,18.74
2023-04-26T16:16:48.738Z,18.68
2023-04-26T16:19:17.521Z,18.55
2023-04-26T16:21:45.076Z,18.50
2023-04-26T16:24:12.769Z,18.46
2023-04-26T16:26:40.317Z,18.38
2023-04-26T16:29:08.601Z,18.31
2023-04-26T16:31:36.427Z,18.29
2023-04-26T16:34:03.999Z,18.27
2023-04-26T16:36:31.904Z,18.22
2023-04-26T16:38:59.466Z,18.14
2023-04-26T16:41:27.942Z,18.09
2023-04-26T16:43:56.123Z,18.08
2023-04-26T16:46:23.685Z,18.02
2023-04-26T16:48:51.625Z,17.95
2023-04-26T16:51:19.186Z,17.95
2023-04-26T16:53:46.803Z,17.90
2023-04-26T16:56:14.375Z,17.86
2023-04-26T16:58:42.192Z,17.84
2023-04-26T17:01:09.656Z,17.80
2023-04-26T17:03:37.273Z,17.77
2023-04-26T17:06:06.692Z,17.68
2023-04-26T17:08:34.170Z,17.66
2023-04-26T17:11:01.710Z,17.63
2023-04-26T17:13:30.799Z,17.55
2023-04-26T17:15:58.369Z,17.55
2023-04-26T17:18:26.027Z,17.53
2023-04-26T17:20:56.260Z,17.48
2023-04-26T17:23:24.632Z,17.46
2023-04-26T17:25:54.427Z,17.46
2023-04-26T17:28:23.397Z,17.37
2023-04-26T17:30:50.881Z,17.32
2023-04-26T17:33:18.953Z,17.28
2023-04-26T17:35:47.361Z,17.32
2023-04-26T17:38:15.262Z,17.32
2023-04-26T17:40:42.892Z,17.28
2023-04-26T17:43:11.329Z,17.23
2023-04-26T17:45:38.958Z,17.21
2023-04-26T17:48:11.098Z,17.20
2023-04-26T17:50:39.621Z,17.11
2023-04-26T17:53:07.335Z,17.08
2023-04-26T17:55:35.109Z,17.05
2023-04-26T17:58:02.615Z,17.05
2023-04-26T18:00:30.226Z,17.05
2023-04-26T18:02:58.087Z,17.01
2023-04-26T18:05:26.209Z,16.98
2023-04-26T18:07:53.981Z,16.94
2023-04-26T18:10:22.008Z,16.92
2023-04-26T18:12:49.605Z,16.86
2023-04-26T18:15:17.239Z,16.81
2023-04-26T18:17:46.593Z,16.80
2023-04-26T18:20:14.301Z,16.82
2023-04-26T18:22:42.060Z,16.80
2023-04-26T18:25:09.755Z,16.75
2023-04-26T18:27:37.466Z,16.75
2023-04-26T18:30:06.967Z,16.72
2023-04-26T18:32:34.713Z,16.61
2023-04-26T18:35:05.071Z,16.58
2023-04-26T18:37:33.118Z,16.57
2023-04-26T18:40:00.869Z,16.58
2023-04-26T18:42:28.663Z,16.60
2023-04-26T18:44:56.719Z,16.53
2023-04-26T18:47:24.316Z,16.44
2023-04-26T18:49:51.867Z,16.40
2023-04-26T18:52:19.363Z,16.36
2023-04-26T18:54:47.017Z,16.38
2023-04-26T18:57:15.846Z,16.38
2023-04-26T18:59:43.302Z,16.34
2023-04-26T19:02:11.610Z,16.33
2023-04-26T19:04:39.607Z,16.34
2023-04-26T19:07:07.316Z,16.30
2023-04-26T19:09:46.867Z,16.28
2023-04-26T19:12:21.124Z,16.27
2023-04-26T19:14:48.793Z,16.28
2023-04-26T19:17:16.484Z,16.26
2023-04-26T19:19:44.017Z,16.21
2023-04-26T19:22:11.854Z,16.20
2023-04-26T19:24:39.444Z,16.17
2023-04-26T19:27:06.938Z,16.18
2023-04-26T19:29:34.574Z,16.15
2023-04-26T19:32:04.618Z,16.13
2023-04-26T19:34:34.995Z,16.11
2023-04-26T19:37:03.515Z,16.09
2023-04-26T19:39:31.379Z,16.06
2023-04-26T19:42:01.366Z,16.07
2023-04-26T19:44:28.785Z,16.08
2023-04-26T19:46:56.737Z,16.04
2023-04-26T19:49:25.412Z,16.02
2023-04-26T19:51:54.262Z,16.04
2023-04-26T19:54:21.832Z,16.02
2023-04-26T19:56:49.428Z,16.01
2023-04-26T19:59:17.048Z,16.01
2023-04-26T20:01:44.584Z,15.97
2023-04-26T20:04:12.249Z,15.93
2023-04-26T20:06:40.207Z,15.93
2023-04-26T20:09:08.160Z,15.91
2023-04-26T20:11:37.536Z,15.88
2023-04-26T20:14:05.097Z,15.87
2023-04-26T20:16:34.111Z,15.83
2023-04-26T20:19:01.740Z,15.78
2023-04-26T20:21:29.356Z,15.75
2023-04-26T20:23:56.888Z,15.75
2023-04-26T20:26:24.502Z,15.75
2023-04-26T20:28:52.342Z,15.70
2023-04-26T20:31:20.020Z,15.65
2023-04-26T20:33:47.806Z,15.67
2023-04-26T20:36:15.928Z,15.61
2023-04-26T20:38:43.573Z,15.61
2023-04-26T20:41:11.036Z,15.60
2023-04-26T20:43:39.533Z,15.54
2023-04-26T20:46:07.354Z,15.49
2023-04-26T20:48:35.632Z,15.50
2023-04-26T20:51:03.453Z,15.46
2023-04-26T20:53:31.204Z,15.39
2023-04-26T20:56:15.103Z,15.36
2023-04-26T20:58:50.956Z,15.37
2023-04-26T21:01:19.065Z,15.41
2023-04-26T21:03:47.164Z,15.36
2023-04-26T21:06:15.045Z,15.36
2023-04-26T21:08:43.579Z,15.34
2023-04-26T21:11:11.435Z,15.35
2023-04-26T21:13:39.250Z,15.35
2023-04-26T21:16:07.262Z,15.33
2023-04-26T21:18:35.550Z,15.29
2023-04-26T21:21:05.510Z,15.30
2023-04-26T21:23:34.657Z,15.28
2023-04-26T21:26:09.172Z,15.23
2023-04-26T21:28:39.781Z,15.18
2023-04-26T21:31:13.121Z,15.06
2023-04-26T21:33:43.058Z,14.98
2023-04-26T21:36:11.352Z,14.96
2023-04-26T21:38:38.875Z,14.88
2023-04-26T21:41:06.444Z,14.80
2023-04-26T21:43:34.254Z,14.73
2023-04-26T21:46:01.942Z,14.72
2023-04-26T21:48:32.086Z,14.74
2023-04-26T21:50:59.892Z,14.68
2023-04-26T21:53:27.589Z,14.66
2023-04-26T21:55:55.404Z,14.71
2023-04-26T21:58:23.681Z,14.59
2023-04-26T22:00:51.832Z,14.55
2023-04-26T22:03:20.135Z,14.48
2023-04-26T22:05:47.904Z,14.36
2023-04-26T22:08:17.190Z,14.30
2023-04-26T22:10:44.968Z,14.19
2023-04-26T22:13:12.909Z,14.19
2023-04-26T22:15:41.191Z,14.22
2023-04-26T22:18:08.845Z,14.20
2023-04-26T22:20:36.547Z,14.12
2023-04-26T22:23:04.206Z,14.09
2023-04-26T22:25:31.895Z,14.06
2023-04-26T22:27:59.651Z,14.06
2023-04-26T22:30:27.334Z,14.08
2023-04-26T22:32:58.166Z,14.01
2023-04-26T22:35:27.654Z,14.05
2023-04-26T22:37:55.502Z,14.11
2023-04-26T22:40:23.197Z,14.11
2023-04-26T22:42:50.958Z,14.05
2023-04-26T22:45:20.413Z,14.07
2023-04-26T22:47:48.147Z,14.08
2023-04-26T22:50:15.907Z,14.11
2023-04-26T22:52:43.508Z,14.17
2023-04-26T22:55:11.417Z,14.16
2023-04-26T22:57:39.379Z,14.04
2023-04-26T23:00:10.224Z,14.01
2023-04-26T23:02:38.383Z,13.88
2023-04-26T23:05:09.678Z,13.84
2023-04-26T23:07:38.469Z,13.78
2023-04-26T23:10:07.018Z,13.82
2023-04-26T23:12:36.327Z,13.77
2023-04-26T23:15:05.398Z,13.74
2023-04-26T23:17:34.336Z,13.79
2023-04-26T23:20:02.123Z,13.71
2023-04-26T23:22:29.821Z,13.72
2023-04-26T23:24:57.274Z,13.77
2023-04-26T23:27:24.939Z,13.74
2023-04-26T23:29:52.953Z,13.73
2023-04-26T23:32:20.630Z,13.73
2023-04-26T23:34:48.295Z,13.81
2023-04-26T23:37:16.298Z,13.85
2023-04-26T23:39:44.200Z,13.90
2023-04-26T23:42:11.771Z,13.81
2023-04-26T23:44:39.897Z,13.74
2023-04-26T23:47:07.497Z,13.72
2023-04-26T23:49:35.328Z,13.73
2023-04-26T23:52:02.896Z,13.74
2023-04-26T23:54:31.440Z,13.71
2023-04-26T23:56:59.243Z,13.71
2023-04-26T23:59:26.799Z,13.56
